sensor_id;sensor_type;location;lat;lon;timestamp;P1;P2;P0
64138;PMS5003;50435;43.700;-79.318;2023-03-13T00:01:52;3;3;
64138;PMS5003;50435;43.700;-79.318;2023-03-13T00:04:19;8;5;
64138;PMS5003;50435;43.700;-79.318;2023-03-13T00:06:46;4;4;
64138;PMS5003;50435;43.700;-79.318;2023-03-13T00:09:14;7;5;
64138;PMS5003;50435;43.700;-79.318;2023-03-13T00:11:42;4;4;
64138;PMS5003;50435;43.700;-79.318;2023-03-13T00:14:10;4;4;
64138;PMS5003;50435;43.700;-79.318;2023-03-13T00:16:38;3;3;
64138;PMS5003;50435;43.700;-79.318;2023-03-13T00:19:06;4;4;
64138;PMS5003;50435;43.700;-79.318;2023-03-13T00:21:35;4;4;
64138;PMS5003;50435;43.700;-79.318;2023-03-13T00:24:03;4;4;
64138;PMS5003;50435;43.700;-79.318;2023-03-13T00:26:31;4;4;
64138;PMS5003;50435;43.700;-79.318;2023-03-13T00:28:58;5;3;
64138;PMS5003;50435;43.700;-79.318;2023-03-13T00:31:26;3;3;
64138;PMS5003;50435;43.700;-79.318;2023-03-13T00:33:57;4;4;
64138;PMS5003;50435;43.700;-79.318;2023-03-13T00:36:27;5;5;
64138;PMS5003;50435;43.700;-79.318;2023-03-13T00:38:56;3;3;
64138;PMS5003;50435;43.700;-79.318;2023-03-13T00:41:24;5;5;
64138;PMS5003;50435;43.700;-79.318;2023-03-13T00:43:53;3;3;
64138;PMS5003;50435;43.700;-79.318;2023-03-13T00:46:22;4;3;
64138;PMS5003;50435;43.700;-79.318;2023-03-13T00:48:50;5;4;
64138;PMS5003;50435;43.700;-79.318;2023-03-13T00:51:19;4;4;
64138;PMS5003;50435;43.700;-79.318;2023-03-13T00:53:48;4;4;
64138;PMS5003;50435;43.700;-79.318;2023-03-13T00:56:16;4;4;
64138;PMS5003;50435;43.700;-79.318;2023-03-13T00:58:46;3;3;
64138;PMS5003;50435;43.700;-79.318;2023-03-13T01:01:16;3;3;
64138;PMS5003;50435;43.700;-79.318;2023-03-13T01:03:46;3;3;
64138;PMS5003;50435;43.700;-79.318;2023-03-13T01:06:15;5;3;
64138;PMS5003;50435;43.700;-79.318;2023-03-13T01:08:45;3;3;
64138;PMS5003;50435;43.700;-79.318;2023-03-13T01:11:14;3;3;
64138;PMS5003;50435;43.700;-79.318;2023-03-13T01:13:43;3;3;
64138;PMS5003;50435;43.700;-79.318;2023-03-13T01:16:11;5;4;
64138;PMS5003;50435;43.700;-79.318;2023-03-13T01:18:43;3;3;
64138;PMS5003;50435;43.700;-79.318;2023-03-13T01:21:12;4;4;
64138;PMS5003;50435;43.700;-79.318;2023-03-13T01:23:41;5;5;
64138;PMS5003;50435;43.700;-79.318;2023-03-13T01:26:08;4;4;
64138;PMS5003;50435;43.700;-79.318;2023-03-13T01:28:37;3;3;
64138;PMS5003;50435;43.700;-79.318;2023-03-13T01:31:12;4;3;
64138;PMS5003;50435;43.700;-79.318;2023-03-13T01:33:41;3;3;
64138;PMS5003;50435;43.700;-79.318;2023-03-13T01:36:09;5;3;
64138;PMS5003;50435;43.700;-79.318;2023-03-13T01:38:38;3;3;
64138;PMS5003;50435;43.700;-79.318;2023-03-13T01:41:07;3;3;
64138;PMS5003;50435;43.700;-79.318;2023-03-13T01:43:37;4;4;
64138;PMS5003;50435;43.700;-79.318;2023-03-13T01:46:10;3;3;
64138;PMS5003;50435;43.700;-79.318;2023-03-13T01:48:41;3;3;
64138;PMS5003;50435;43.700;-79.318;2023-03-13T01:51:15;4;4;
64138;PMS5003;50435;43.700;-79.318;2023-03-13T01:53:47;4;4;
64138;PMS5003;50435;43.700;-79.318;2023-03-13T01:56:18;4;4;
64138;PMS5003;50435;43.700;-79.318;2023-03-13T01:58:49;2;2;
64138;PMS5003;50435;43.700;-79.318;2023-03-13T02:01:19;3;3;
64138;PMS5003;50435;43.700;-79.318;2023-03-13T02:03:46;4;4;
64138;PMS5003;50435;43.700;-79.318;2023-03-13T02:06:15;4;4;
64138;PMS5003;50435;43.700;-79.318;2023-03-13T02:08:44;4;4;
64138;PMS5003;50435;43.700;-79.318;2023-03-13T02:11:19;4;3;
64138;PMS5003;50435;43.700;-79.318;2023-03-13T02:13:53;4;3;
64138;PMS5003;50435;43.700;-79.318;2023-03-13T02:16:23;3;3;
64138;PMS5003;50435;43.700;-79.318;2023-03-13T02:18:52;5;4;
64138;PMS5003;50435;43.700;-79.318;2023-03-13T02:21:22;4;4;
64138;PMS5003;50435;43.700;-79.318;2023-03-13T02:24:05;3;3;
64138;PMS5003;50435;43.700;-79.318;2023-03-13T02:26:39;4;4;
64138;PMS5003;50435;43.700;-79.318;2023-03-13T02:29:06;3;3;
64138;PMS5003;50435;43.700;-79.318;2023-03-13T02:31:35;8;4;
64138;PMS5003;50435;43.700;-79.318;2023-03-13T02:34:03;7;4;
64138;PMS5003;50435;43.700;-79.318;2023-03-13T02:36:31;5;5;
64138;PMS5003;50435;43.700;-79.318;2023-03-13T02:39:00;7;4;
64138;PMS5003;50435;43.700;-79.318;2023-03-13T02:41:31;6;4;
64138;PMS5003;50435;43.700;-79.318;2023-03-13T02:44:00;3;3;
64138;PMS5003;50435;43.700;-79.318;2023-03-13T02:46:27;8;8;
64138;PMS5003;50435;43.700;-79.318;2023-03-13T02:48:55;5;4;
64138;PMS5003;50435;43.700;-79.318;2023-03-13T02:51:24;3;3;
64138;PMS5003;50435;43.700;-79.318;2023-03-13T02:53:56;8;5;
64138;PMS5003;50435;43.700;-79.318;2023-03-13T02:56:26;5;5;
64138;PMS5003;50435;43.700;-79.318;2023-03-13T02:58:57;9;7;
64138;PMS5003;50435;43.700;-79.318;2023-03-13T03:01:24;5;4;
64138;PMS5003;50435;43.700;-79.318;2023-03-13T03:03:51;8;7;
64138;PMS5003;50435;43.700;-79.318;2023-03-13T03:06:19;9;9;
64138;PMS5003;50435;43.700;-79.318;2023-03-13T03:08:46;8;7;
64138;PMS5003;50435;43.700;-79.318;2023-03-13T03:11:13;11;10;
64138;PMS5003;50435;43.700;-79.318;2023-03-13T03:13:41;10;10;
64138;PMS5003;50435;43.700;-79.318;2023-03-13T03:16:09;11;11;
64138;PMS5003;50435;43.700;-79.318;2023-03-13T03:18:39;15;14;
64138;PMS5003;50435;43.700;-79.318;2023-03-13T03:21:06;11;9;
64138;PMS5003;50435;43.700;-79.318;2023-03-13T03:23:33;9;9;
64138;PMS5003;50435;43.700;-79.318;2023-03-13T03:26:03;11;10;
64138;PMS5003;50435;43.700;-79.318;2023-03-13T03:28:32;10;10;
64138;PMS5003;50435;43.700;-79.318;2023-03-13T03:31:02;15;14;
64138;PMS5003;50435;43.700;-79.318;2023-03-13T03:33:29;13;13;
64138;PMS5003;50435;43.700;-79.318;2023-03-13T03:35:58;11;11;
64138;PMS5003;50435;43.700;-79.318;2023-03-13T03:38:26;10;9;
64138;PMS5003;50435;43.700;-79.318;2023-03-13T03:40:54;16;14;
64138;PMS5003;50435;43.700;-79.318;2023-03-13T03:43:21;16;15;
64138;PMS5003;50435;43.700;-79.318;2023-03-13T03:45:48;14;13;
64138;PMS5003;50435;43.700;-79.318;2023-03-13T03:48:16;15;14;
64138;PMS5003;50435;43.700;-79.318;2023-03-13T03:50:44;14;13;
64138;PMS5003;50435;43.700;-79.318;2023-03-13T03:53:11;11;10;
64138;PMS5003;50435;43.700;-79.318;2023-03-13T03:55:38;14;13;
64138;PMS5003;50435;43.700;-79.318;2023-03-13T03:58:06;11;11;
64138;PMS5003;50435;43.700;-79.318;2023-03-13T04:00:33;15;13;
64138;PMS5003;50435;43.700;-79.318;2023-03-13T04:03:00;20;17;
64138;PMS5003;50435;43.700;-79.318;2023-03-13T04:05:28;19;18;
64138;PMS5003;50435;43.700;-79.318;2023-03-13T04:07:55;16;15;
64138;PMS5003;50435;43.700;-79.318;2023-03-13T04:10:23;17;14;
64138;PMS5003;50435;43.700;-79.318;2023-03-13T04:12:50;16;14;
64138;PMS5003;50435;43.700;-79.318;2023-03-13T04:15:18;10;10;
64138;PMS5003;50435;43.700;-79.318;2023-03-13T04:17:45;15;15;
64138;PMS5003;50435;43.700;-79.318;2023-03-13T04:20:13;19;19;
64138;PMS5003;50435;43.700;-79.318;2023-03-13T04:22:41;13;13;
64138;PMS5003;50435;43.700;-79.318;2023-03-13T04:25:09;14;13;
64138;PMS5003;50435;43.700;-79.318;2023-03-13T04:27:36;14;14;
64138;PMS5003;50435;43.700;-79.318;2023-03-13T04:30:04;16;15;
64138;PMS5003;50435;43.700;-79.318;2023-03-13T04:32:33;15;14;
64138;PMS5003;50435;43.700;-79.318;2023-03-13T04:35:00;13;13;
64138;PMS5003;50435;43.700;-79.318;2023-03-13T04:37:27;16;14;
64138;PMS5003;50435;43.700;-79.318;2023-03-13T04:39:54;22;15;
64138;PMS5003;50435;43.700;-79.318;2023-03-13T04:42:21;14;14;
64138;PMS5003;50435;43.700;-79.318;2023-03-13T04:44:49;16;16;
64138;PMS5003;50435;43.700;-79.318;2023-03-13T04:47:16;17;15;
64138;PMS5003;50435;43.700;-79.318;2023-03-13T04:49:43;16;14;
64138;PMS5003;50435;43.700;-79.318;2023-03-13T04:52:11;15;15;
64138;PMS5003;50435;43.700;-79.318;2023-03-13T04:54:38;13;13;
64138;PMS5003;50435;43.700;-79.318;2023-03-13T04:57:05;16;14;
64138;PMS5003;50435;43.700;-79.318;2023-03-13T04:59:32;15;13;
64138;PMS5003;50435;43.700;-79.318;2023-03-13T05:02:00;17;16;
64138;PMS5003;50435;43.700;-79.318;2023-03-13T05:04:27;15;14;
64138;PMS5003;50435;43.700;-79.318;2023-03-13T05:06:55;17;14;
64138;PMS5003;50435;43.700;-79.318;2023-03-13T05:09:22;17;15;
64138;PMS5003;50435;43.700;-79.318;2023-03-13T05:11:50;11;11;
64138;PMS5003;50435;43.700;-79.318;2023-03-13T05:14:17;15;15;
64138;PMS5003;50435;43.700;-79.318;2023-03-13T05:16:44;20;17;
64138;PMS5003;50435;43.700;-79.318;2023-03-13T05:19:12;20;13;
64138;PMS5003;50435;43.700;-79.318;2023-03-13T05:21:39;15;14;
64138;PMS5003;50435;43.700;-79.318;2023-03-13T05:24:06;15;15;
64138;PMS5003;50435;43.700;-79.318;2023-03-13T05:26:34;14;13;
64138;PMS5003;50435;43.700;-79.318;2023-03-13T05:29:02;14;11;
64138;PMS5003;50435;43.700;-79.318;2023-03-13T05:31:29;13;13;
64138;PMS5003;50435;43.700;-79.318;2023-03-13T05:33:56;14;14;
64138;PMS5003;50435;43.700;-79.318;2023-03-13T05:36:23;16;13;
64138;PMS5003;50435;43.700;-79.318;2023-03-13T05:38:51;13;12;
64138;PMS5003;50435;43.700;-79.318;2023-03-13T05:41:18;14;13;
64138;PMS5003;50435;43.700;-79.318;2023-03-13T05:43:45;19;16;
64138;PMS5003;50435;43.700;-79.318;2023-03-13T05:46:12;14;14;
64138;PMS5003;50435;43.700;-79.318;2023-03-13T05:48:39;16;14;
64138;PMS5003;50435;43.700;-79.318;2023-03-13T05:51:07;17;15;
64138;PMS5003;50435;43.700;-79.318;2023-03-13T05:53:34;21;17;
64138;PMS5003;50435;43.700;-79.318;2023-03-13T05:56:02;10;10;
64138;PMS5003;50435;43.700;-79.318;2023-03-13T05:58:30;15;14;
64138;PMS5003;50435;43.700;-79.318;2023-03-13T06:00:57;14;13;
64138;PMS5003;50435;43.700;-79.318;2023-03-13T06:03:25;11;11;
64138;PMS5003;50435;43.700;-79.318;2023-03-13T06:05:56;9;9;
64138;PMS5003;50435;43.700;-79.318;2023-03-13T06:08:24;16;13;
64138;PMS5003;50435;43.700;-79.318;2023-03-13T06:10:52;15;13;
64138;PMS5003;50435;43.700;-79.318;2023-03-13T06:13:19;19;13;
64138;PMS5003;50435;43.700;-79.318;2023-03-13T06:15:50;11;10;
64138;PMS5003;50435;43.700;-79.318;2023-03-13T06:18:17;15;13;
64138;PMS5003;50435;43.700;-79.318;2023-03-13T06:20:44;18;14;
64138;PMS5003;50435;43.700;-79.318;2023-03-13T06:23:14;10;10;
64138;PMS5003;50435;43.700;-79.318;2023-03-13T06:25:41;13;13;
64138;PMS5003;50435;43.700;-79.318;2023-03-13T06:28:13;10;10;
64138;PMS5003;50435;43.700;-79.318;2023-03-13T06:30:40;16;11;
64138;PMS5003;50435;43.700;-79.318;2023-03-13T06:33:08;14;11;
64138;PMS5003;50435;43.700;-79.318;2023-03-13T06:35:38;14;13;
64138;PMS5003;50435;43.700;-79.318;2023-03-13T06:38:06;13;10;
64138;PMS5003;50435;43.700;-79.318;2023-03-13T06:40:35;14;14;
64138;PMS5003;50435;43.700;-79.318;2023-03-13T06:43:02;10;10;
64138;PMS5003;50435;43.700;-79.318;2023-03-13T06:45:29;11;10;
64138;PMS5003;50435;43.700;-79.318;2023-03-13T06:47:56;16;14;
64138;PMS5003;50435;43.700;-79.318;2023-03-13T06:50:24;10;10;
64138;PMS5003;50435;43.700;-79.318;2023-03-13T06:52:51;10;10;
64138;PMS5003;50435;43.700;-79.318;2023-03-13T06:55:18;11;10;
64138;PMS5003;50435;43.700;-79.318;2023-03-13T06:57:48;13;13;
64138;PMS5003;50435;43.700;-79.318;2023-03-13T07:00:16;14;11;
64138;PMS5003;50435;43.700;-79.318;2023-03-13T07:02:44;9;8;
64138;PMS5003;50435;43.700;-79.318;2023-03-13T07:05:12;14;9;
64138;PMS5003;50435;43.700;-79.318;2023-03-13T07:07:39;13;10;
64138;PMS5003;50435;43.700;-79.318;2023-03-13T07:10:07;7;7;
64138;PMS5003;50435;43.700;-79.318;2023-03-13T07:12:36;10;9;
64138;PMS5003;50435;43.700;-79.318;2023-03-13T07:15:04;9;9;
64138;PMS5003;50435;43.700;-79.318;2023-03-13T07:17:33;13;11;
64138;PMS5003;50435;43.700;-79.318;2023-03-13T07:20:00;9;9;
64138;PMS5003;50435;43.700;-79.318;2023-03-13T07:22:28;14;11;
64138;PMS5003;50435;43.700;-79.318;2023-03-13T07:24:55;11;9;
64138;PMS5003;50435;43.700;-79.318;2023-03-13T07:27:23;13;10;
64138;PMS5003;50435;43.700;-79.318;2023-03-13T07:29:51;11;9;
64138;PMS5003;50435;43.700;-79.318;2023-03-13T07:32:18;14;11;
64138;PMS5003;50435;43.700;-79.318;2023-03-13T07:34:45;9;8;
64138;PMS5003;50435;43.700;-79.318;2023-03-13T07:37:13;13;10;
64138;PMS5003;50435;43.700;-79.318;2023-03-13T07:39:41;11;10;
64138;PMS5003;50435;43.700;-79.318;2023-03-13T07:42:09;10;10;
64138;PMS5003;50435;43.700;-79.318;2023-03-13T07:44:37;9;9;
64138;PMS5003;50435;43.700;-79.318;2023-03-13T07:47:05;14;13;
64138;PMS5003;50435;43.700;-79.318;2023-03-13T07:49:32;9;9;
64138;PMS5003;50435;43.700;-79.318;2023-03-13T07:52:00;13;11;
64138;PMS5003;50435;43.700;-79.318;2023-03-13T07:54:27;11;10;
64138;PMS5003;50435;43.700;-79.318;2023-03-13T07:56:54;11;10;
64138;PMS5003;50435;43.700;-79.318;2023-03-13T07:59:21;9;9;
64138;PMS5003;50435;43.700;-79.318;2023-03-13T08:01:49;11;5;
64138;PMS5003;50435;43.700;-79.318;2023-03-13T08:04:16;14;11;
64138;PMS5003;50435;43.700;-79.318;2023-03-13T08:06:43;10;9;
64138;PMS5003;50435;43.700;-79.318;2023-03-13T08:09:11;11;9;
64138;PMS5003;50435;43.700;-79.318;2023-03-13T08:11:38;11;9;
64138;PMS5003;50435;43.700;-79.318;2023-03-13T08:14:06;10;10;
64138;PMS5003;50435;43.700;-79.318;2023-03-13T08:16:34;11;11;
64138;PMS5003;50435;43.700;-79.318;2023-03-13T08:19:02;10;9;
64138;PMS5003;50435;43.700;-79.318;2023-03-13T08:21:30;11;9;
64138;PMS5003;50435;43.700;-79.318;2023-03-13T08:24:00;9;8;
64138;PMS5003;50435;43.700;-79.318;2023-03-13T08:26:29;10;9;
64138;PMS5003;50435;43.700;-79.318;2023-03-13T08:28:58;13;9;
64138;PMS5003;50435;43.700;-79.318;2023-03-13T08:31:28;9;8;
64138;PMS5003;50435;43.700;-79.318;2023-03-13T08:33:57;9;8;
64138;PMS5003;50435;43.700;-79.318;2023-03-13T08:36:25;10;10;
64138;PMS5003;50435;43.700;-79.318;2023-03-13T08:38:56;11;11;
64138;PMS5003;50435;43.700;-79.318;2023-03-13T08:41:26;11;10;
64138;PMS5003;50435;43.700;-79.318;2023-03-13T08:43:55;11;11;
64138;PMS5003;50435;43.700;-79.318;2023-03-13T08:46:23;10;10;
64138;PMS5003;50435;43.700;-79.318;2023-03-13T08:48:52;9;9;
64138;PMS5003;50435;43.700;-79.318;2023-03-13T08:51:21;11;10;
64138;PMS5003;50435;43.700;-79.318;2023-03-13T08:53:50;9;8;
64138;PMS5003;50435;43.700;-79.318;2023-03-13T08:56:19;10;10;
64138;PMS5003;50435;43.700;-79.318;2023-03-13T08:58:48;10;9;
64138;PMS5003;50435;43.700;-79.318;2023-03-13T09:01:17;9;7;
64138;PMS5003;50435;43.700;-79.318;2023-03-13T09:03:46;8;8;
64138;PMS5003;50435;43.700;-79.318;2023-03-13T09:06:13;7;7;
64138;PMS5003;50435;43.700;-79.318;2023-03-13T09:08:40;10;10;
64138;PMS5003;50435;43.700;-79.318;2023-03-13T09:11:10;10;10;
64138;PMS5003;50435;43.700;-79.318;2023-03-13T09:13:39;7;7;
64138;PMS5003;50435;43.700;-79.318;2023-03-13T09:16:09;5;5;
64138;PMS5003;50435;43.700;-79.318;2023-03-13T09:18:38;8;8;
64138;PMS5003;50435;43.700;-79.318;2023-03-13T09:21:06;8;8;
64138;PMS5003;50435;43.700;-79.318;2023-03-13T09:23:35;8;8;
64138;PMS5003;50435;43.700;-79.318;2023-03-13T09:26:02;8;7;
64138;PMS5003;50435;43.700;-79.318;2023-03-13T09:28:30;8;7;
64138;PMS5003;50435;43.700;-79.318;2023-03-13T09:31:05;7;7;
64138;PMS5003;50435;43.700;-79.318;2023-03-13T09:33:34;8;7;
64138;PMS5003;50435;43.700;-79.318;2023-03-13T09:36:01;7;7;
64138;PMS5003;50435;43.700;-79.318;2023-03-13T09:38:29;8;8;
64138;PMS5003;50435;43.700;-79.318;2023-03-13T09:41:00;9;9;
64138;PMS5003;50435;43.700;-79.318;2023-03-13T09:43:34;9;8;
64138;PMS5003;50435;43.700;-79.318;2023-03-13T09:46:10;9;8;
64138;PMS5003;50435;43.700;-79.318;2023-03-13T09:48:42;8;7;
64138;PMS5003;50435;43.700;-79.318;2023-03-13T09:51:15;9;9;
64138;PMS5003;50435;43.700;-79.318;2023-03-13T09:53:47;10;9;
64138;PMS5003;50435;43.700;-79.318;2023-03-13T09:56:19;9;8;
64138;PMS5003;50435;43.700;-79.318;2023-03-13T09:58:53;8;5;
64138;PMS5003;50435;43.700;-79.318;2023-03-13T10:01:26;9;7;
64138;PMS5003;50435;43.700;-79.318;2023-03-13T10:03:58;9;9;
64138;PMS5003;50435;43.700;-79.318;2023-03-13T10:06:34;6;6;
64138;PMS5003;50435;43.700;-79.318;2023-03-13T10:09:07;10;10;
64138;PMS5003;50435;43.700;-79.318;2023-03-13T10:11:43;9;9;
64138;PMS5003;50435;43.700;-79.318;2023-03-13T10:14:17;7;7;
64138;PMS5003;50435;43.700;-79.318;2023-03-13T10:16:51;13;10;
64138;PMS5003;50435;43.700;-79.318;2023-03-13T10:19:26;9;7;
64138;PMS5003;50435;43.700;-79.318;2023-03-13T10:21:57;8;8;
64138;PMS5003;50435;43.700;-79.318;2023-03-13T10:24:30;9;9;
64138;PMS5003;50435;43.700;-79.318;2023-03-13T10:26:59;7;7;
64138;PMS5003;50435;43.700;-79.318;2023-03-13T10:29:27;12;8;
64138;PMS5003;50435;43.700;-79.318;2023-03-13T10:31:56;8;7;
64138;PMS5003;50435;43.700;-79.318;2023-03-13T10:34:26;8;7;
64138;PMS5003;50435;43.700;-79.318;2023-03-13T10:36:56;9;7;
64138;PMS5003;50435;43.700;-79.318;2023-03-13T10:39:26;7;7;
64138;PMS5003;50435;43.700;-79.318;2023-03-13T10:41:56;7;7;
64138;PMS5003;50435;43.700;-79.318;2023-03-13T10:44:29;6;6;
64138;PMS5003;50435;43.700;-79.318;2023-03-13T10:46:58;6;6;
64138;PMS5003;50435;43.700;-79.318;2023-03-13T10:49:27;8;8;
64138;PMS5003;50435;43.700;-79.318;2023-03-13T10:51:56;6;6;
64138;PMS5003;50435;43.700;-79.318;2023-03-13T10:54:26;8;8;
64138;PMS5003;50435;43.700;-79.318;2023-03-13T10:57:07;6;6;
64138;PMS5003;50435;43.700;-79.318;2023-03-13T10:59:47;12;10;
64138;PMS5003;50435;43.700;-79.318;2023-03-13T11:02:21;9;9;
64138;PMS5003;50435;43.700;-79.318;2023-03-13T11:04:52;9;7;
64138;PMS5003;50435;43.700;-79.318;2023-03-13T11:07:21;12;8;
64138;PMS5003;50435;43.700;-79.318;2023-03-13T11:10:02;4;4;
64138;PMS5003;50435;43.700;-79.318;2023-03-13T11:12:43;7;6;
64138;PMS5003;50435;43.700;-79.318;2023-03-13T11:15:13;9;8;
64138;PMS5003;50435;43.700;-79.318;2023-03-13T11:17:42;7;7;
64138;PMS5003;50435;43.700;-79.318;2023-03-13T11:20:20;13;7;
64138;PMS5003;50435;43.700;-79.318;2023-03-13T11:22:54;8;7;
64138;PMS5003;50435;43.700;-79.318;2023-03-13T11:25:30;10;7;
64138;PMS5003;50435;43.700;-79.318;2023-03-13T11:28:06;10;10;
64138;PMS5003;50435;43.700;-79.318;2023-03-13T11:30:49;8;7;
64138;PMS5003;50435;43.700;-79.318;2023-03-13T11:33:33;8;8;
64138;PMS5003;50435;43.700;-79.318;2023-03-13T11:36:06;9;8;
64138;PMS5003;50435;43.700;-79.318;2023-03-13T11:38:45;9;7;
64138;PMS5003;50435;43.700;-79.318;2023-03-13T11:41:22;9;8;
64138;PMS5003;50435;43.700;-79.318;2023-03-13T11:44:02;8;8;
64138;PMS5003;50435;43.700;-79.318;2023-03-13T11:46:45;8;7;
64138;PMS5003;50435;43.700;-79.318;2023-03-13T11:49:25;9;9;
64138;PMS5003;50435;43.700;-79.318;2023-03-13T11:52:08;9;8;
64138;PMS5003;50435;43.700;-79.318;2023-03-13T11:54:46;8;7;
64138;PMS5003;50435;43.700;-79.318;2023-03-13T11:57:26;12;10;
64138;PMS5003;50435;43.700;-79.318;2023-03-13T12:00:02;7;6;
64138;PMS5003;50435;43.700;-79.318;2023-03-13T12:02:44;8;8;
64138;PMS5003;50435;43.700;-79.318;2023-03-13T12:05:16;7;7;
64138;PMS5003;50435;43.700;-79.318;2023-03-13T12:07:47;7;7;
64138;PMS5003;50435;43.700;-79.318;2023-03-13T12:10:24;7;7;
64138;PMS5003;50435;43.700;-79.318;2023-03-13T12:12:57;8;7;
64138;PMS5003;50435;43.700;-79.318;2023-03-13T12:15:30;9;8;
64138;PMS5003;50435;43.700;-79.318;2023-03-13T12:18:04;7;7;
64138;PMS5003;50435;43.700;-79.318;2023-03-13T12:20:40;9;9;
64138;PMS5003;50435;43.700;-79.318;2023-03-13T12:23:16;8;7;
64138;PMS5003;50435;43.700;-79.318;2023-03-13T12:25:46;7;7;
64138;PMS5003;50435;43.700;-79.318;2023-03-13T12:28:20;10;10;
64138;PMS5003;50435;43.700;-79.318;2023-03-13T12:30:56;8;8;
64138;PMS5003;50435;43.700;-79.318;2023-03-13T12:33:31;7;6;
64138;PMS5003;50435;43.700;-79.318;2023-03-13T12:36:06;8;8;
64138;PMS5003;50435;43.700;-79.318;2023-03-13T12:38:40;9;9;
64138;PMS5003;50435;43.700;-79.318;2023-03-13T12:41:17;9;8;
64138;PMS5003;50435;43.700;-79.318;2023-03-13T12:43:48;10;9;
64138;PMS5003;50435;43.700;-79.318;2023-03-13T12:46:24;8;7;
64138;PMS5003;50435;43.700;-79.318;2023-03-13T12:49:11;9;8;
64138;PMS5003;50435;43.700;-79.318;2023-03-13T12:52:09;12;9;
64138;PMS5003;50435;43.700;-79.318;2023-03-13T12:54:49;9;9;
64138;PMS5003;50435;43.700;-79.318;2023-03-13T12:57:40;12;9;
64138;PMS5003;50435;43.700;-79.318;2023-03-13T13:00:26;12;10;
64138;PMS5003;50435;43.700;-79.318;2023-03-13T13:03:07;8;8;
64138;PMS5003;50435;43.700;-79.318;2023-03-13T13:05:57;9;9;
64138;PMS5003;50435;43.700;-79.318;2023-03-13T13:08:26;14;9;
64138;PMS5003;50435;43.700;-79.318;2023-03-13T13:12:14;12;12;
64138;PMS5003;50435;43.700;-79.318;2023-03-13T13:14:59;13;11;
64138;PMS5003;50435;43.700;-79.318;2023-03-13T13:17:42;12;12;
64138;PMS5003;50435;43.700;-79.318;2023-03-13T13:20:32;22;16;
64138;PMS5003;50435;43.700;-79.318;2023-03-13T13:23:41;12;12;
64138;PMS5003;50435;43.700;-79.318;2023-03-13T13:26:47;11;10;
64138;PMS5003;50435;43.700;-79.318;2023-03-13T13:29:51;13;10;
64138;PMS5003;50435;43.700;-79.318;2023-03-13T13:32:31;10;10;
64138;PMS5003;50435;43.700;-79.318;2023-03-13T13:35:02;9;9;
64138;PMS5003;50435;43.700;-79.318;2023-03-13T13:37:31;14;10;
64138;PMS5003;50435;43.700;-79.318;2023-03-13T13:40:32;15;9;
64138;PMS5003;50435;43.700;-79.318;2023-03-13T13:42:59;13;9;
64138;PMS5003;50435;43.700;-79.318;2023-03-13T13:45:31;9;8;
64138;PMS5003;50435;43.700;-79.318;2023-03-13T13:48:33;9;9;
64138;PMS5003;50435;43.700;-79.318;2023-03-13T13:51:18;14;13;
64138;PMS5003;50435;43.700;-79.318;2023-03-13T13:53:48;13;11;
64138;PMS5003;50435;43.700;-79.318;2023-03-13T13:56:49;13;13;
64138;PMS5003;50435;43.700;-79.318;2023-03-13T13:59:23;10;10;
64138;PMS5003;50435;43.700;-79.318;2023-03-13T14:02:29;8;8;
64138;PMS5003;50435;43.700;-79.318;2023-03-13T14:05:00;14;11;
64138;PMS5003;50435;43.700;-79.318;2023-03-13T14:07:43;14;11;
64138;PMS5003;50435;43.700;-79.318;2023-03-13T14:10:18;15;11;
64138;PMS5003;50435;43.700;-79.318;2023-03-13T14:12:55;11;9;
64138;PMS5003;50435;43.700;-79.318;2023-03-13T14:15:25;11;10;
64138;PMS5003;50435;43.700;-79.318;2023-03-13T14:17:54;13;11;
64138;PMS5003;50435;43.700;-79.318;2023-03-13T14:20:27;11;10;
64138;PMS5003;50435;43.700;-79.318;2023-03-13T14:22:57;10;9;
64138;PMS5003;50435;43.700;-79.318;2023-03-13T14:25:27;11;10;
64138;PMS5003;50435;43.700;-79.318;2023-03-13T14:28:13;15;11;
64138;PMS5003;50435;43.700;-79.318;2023-03-13T14:30:43;8;8;
64138;PMS5003;50435;43.700;-79.318;2023-03-13T14:33:11;10;10;
64138;PMS5003;50435;43.700;-79.318;2023-03-13T14:35:39;10;10;
64138;PMS5003;50435;43.700;-79.318;2023-03-13T14:38:14;10;9;
64138;PMS5003;50435;43.700;-79.318;2023-03-13T14:40:42;16;11;
64138;PMS5003;50435;43.700;-79.318;2023-03-13T14:43:19;10;10;
64138;PMS5003;50435;43.700;-79.318;2023-03-13T14:45:56;11;11;
64138;PMS5003;50435;43.700;-79.318;2023-03-13T14:48:26;10;9;
64138;PMS5003;50435;43.700;-79.318;2023-03-13T14:51:00;15;11;
64138;PMS5003;50435;43.700;-79.318;2023-03-13T14:53:29;10;10;
64138;PMS5003;50435;43.700;-79.318;2023-03-13T14:56:13;13;11;
64138;PMS5003;50435;43.700;-79.318;2023-03-13T14:58:41;13;10;
64138;PMS5003;50435;43.700;-79.318;2023-03-13T15:01:14;10;10;
64138;PMS5003;50435;43.700;-79.318;2023-03-13T15:03:50;14;10;
64138;PMS5003;50435;43.700;-79.318;2023-03-13T15:06:18;12;11;
64138;PMS5003;50435;43.700;-79.318;2023-03-13T15:08:48;10;10;
64138;PMS5003;50435;43.700;-79.318;2023-03-13T15:11:39;20;15;
64138;PMS5003;50435;43.700;-79.318;2023-03-13T15:14:30;11;10;
64138;PMS5003;50435;43.700;-79.318;2023-03-13T15:17:01;10;10;
64138;PMS5003;50435;43.700;-79.318;2023-03-13T15:19:29;12;12;
64138;PMS5003;50435;43.700;-79.318;2023-03-13T15:21:56;15;10;
64138;PMS5003;50435;43.700;-79.318;2023-03-13T15:24:24;14;14;
64138;PMS5003;50435;43.700;-79.318;2023-03-13T15:26:51;11;11;
64138;PMS5003;50435;43.700;-79.318;2023-03-13T15:29:19;14;10;
64138;PMS5003;50435;43.700;-79.318;2023-03-13T15:31:46;12;11;
64138;PMS5003;50435;43.700;-79.318;2023-03-13T15:34:13;20;18;
64138;PMS5003;50435;43.700;-79.318;2023-03-13T15:36:41;12;11;
64138;PMS5003;50435;43.700;-79.318;2023-03-13T15:39:12;11;10;
64138;PMS5003;50435;43.700;-79.318;2023-03-13T15:41:41;12;12;
64138;PMS5003;50435;43.700;-79.318;2023-03-13T15:44:08;11;11;
64138;PMS5003;50435;43.700;-79.318;2023-03-13T15:46:36;11;11;
64138;PMS5003;50435;43.700;-79.318;2023-03-13T15:49:03;10;10;
64138;PMS5003;50435;43.700;-79.318;2023-03-13T15:51:30;11;10;
64138;PMS5003;50435;43.700;-79.318;2023-03-13T15:53:57;16;12;
64138;PMS5003;50435;43.700;-79.318;2023-03-13T15:56:25;11;11;
64138;PMS5003;50435;43.700;-79.318;2023-03-13T15:58:59;14;11;
64138;PMS5003;50435;43.700;-79.318;2023-03-13T16:01:27;14;12;
64138;PMS5003;50435;43.700;-79.318;2023-03-13T16:03:55;10;10;
64138;PMS5003;50435;43.700;-79.318;2023-03-13T16:06:22;14;10;
64138;PMS5003;50435;43.700;-79.318;2023-03-13T16:08:49;11;10;
64138;PMS5003;50435;43.700;-79.318;2023-03-13T16:11:16;15;14;
64138;PMS5003;50435;43.700;-79.318;2023-03-13T16:13:44;15;14;
64138;PMS5003;50435;43.700;-79.318;2023-03-13T16:16:16;16;16;
64138;PMS5003;50435;43.700;-79.318;2023-03-13T16:18:46;11;11;
64138;PMS5003;50435;43.700;-79.318;2023-03-13T16:21:16;16;15;
64138;PMS5003;50435;43.700;-79.318;2023-03-13T16:23:45;16;16;
64138;PMS5003;50435;43.700;-79.318;2023-03-13T16:26:14;12;10;
64138;PMS5003;50435;43.700;-79.318;2023-03-13T16:28:43;13;13;